createdAt,value
2018-05-03T00:01:53.746Z,64.90
2018-05-03T00:04:20.371Z,64.20
2018-05-03T00:06:46.579Z,64.20
2018-05-03T00:09:12.820Z,64.50
2018-05-03T00:11:39.446Z,63.60
2018-05-03T00:14:05.649Z,63.60
2018-05-03T00:16:31.890Z,63.90
2018-05-03T00:18:58.780Z,63.50
2018-05-03T00:21:25.424Z,62.90
2018-05-03T00:23:52.012Z,63.40
2018-05-03T00:26:18.259Z,63.50
2018-05-03T00:28:44.462Z,63.70
2018-05-03T00:31:10.703Z,63.80
2018-05-03T00:33:36.924Z,62.70
2018-05-03T00:36:03.162Z,62.30
2018-05-03T00:38:29.358Z,62.80
2018-05-03T00:40:55.570Z,63.90
2018-05-03T00:43:21.782Z,64.20
2018-05-03T00:45:48.033Z,64.20
2018-05-03T00:48:14.285Z,63.20
2018-05-03T00:50:40.524Z,63.20
2018-05-03T00:53:06.748Z,63.70
2018-05-03T00:55:33.022Z,63.40
2018-05-03T00:57:59.594Z,64.00
2018-05-03T01:00:25.824Z,64.00
2018-05-03T01:02:52.066Z,63.80
2018-05-03T01:05:18.287Z,63.60
2018-05-03T01:07:44.523Z,63.80
2018-05-03T01:10:10.761Z,63.10
2018-05-03T01:12:37.007Z,62.70
2018-05-03T01:15:03.236Z,63.40
2018-05-03T01:17:29.484Z,63.30
2018-05-03T01:19:56.093Z,61.20
2018-05-03T01:22:22.306Z,61.20
2018-05-03T01:24:48.552Z,61.10
2018-05-03T01:27:14.763Z,61.60
2018-05-03T01:29:41.051Z,62.00
2018-05-03T01:32:07.288Z,62.80
2018-05-03T01:34:33.530Z,62.70
2018-05-03T01:36:59.724Z,63.40
2018-05-03T01:39:26.313Z,62.70
2018-05-03T01:41:52.531Z,62.70
2018-05-03T01:44:19.676Z,63.00
2018-05-03T01:46:45.943Z,62.80
2018-05-03T01:49:12.157Z,63.50
2018-05-03T01:51:38.418Z,64.20
2018-05-03T01:54:05.036Z,64.80
2018-05-03T01:56:31.265Z,64.80
2018-05-03T01:58:57.472Z,64.90
2018-05-03T02:01:23.759Z,64.70
2018-05-03T02:03:49.971Z,65.10
2018-05-03T02:06:16.170Z,65.10
2018-05-03T02:08:42.400Z,63.80
2018-05-03T02:11:08.634Z,63.70
2018-05-03T02:13:35.657Z,63.90
2018-05-03T02:16:01.881Z,62.90
2018-05-03T02:18:28.132Z,63.20
2018-05-03T02:20:54.341Z,62.80
2018-05-03T02:23:20.578Z,62.40
2018-05-03T02:25:46.793Z,62.90
2018-05-03T02:28:13.002Z,63.10
2018-05-03T02:30:39.286Z,63.10
2018-05-03T02:33:05.533Z,62.20
2018-05-03T02:35:31.765Z,61.80
2018-05-03T02:37:57.989Z,62.10
2018-05-03T02:40:24.224Z,62.00
2018-05-03T02:42:50.448Z,62.00
2018-05-03T02:45:16.672Z,62.20
2018-05-03T02:47:42.889Z,61.40
2018-05-03T02:50:09.131Z,61.40
2018-05-03T02:52:35.369Z,63.00
2018-05-03T02:55:01.575Z,64.00
2018-05-03T02:57:46.522Z,63.80
2018-05-03T03:00:31.233Z,63.80
2018-05-03T03:03:15.977Z,63.80
2018-05-03T03:05:54.525Z,63.90
2018-05-03T03:22:19.793Z,64.10
2018-05-03T03:38:38.181Z,64.90
2018-05-03T03:41:16.603Z,65.40
2018-05-03T03:44:05.606Z,65.20
2018-05-03T03:46:31.792Z,64.80
2018-05-03T03:48:58.019Z,64.80
2018-05-03T03:51:24.239Z,64.30
2018-05-03T03:53:50.468Z,64.50
2018-05-03T03:56:16.693Z,64.40
2018-05-03T03:58:42.990Z,65.40
2018-05-03T04:01:09.199Z,64.90
2018-05-03T04:03:35.480Z,64.90
2018-05-03T04:06:01.711Z,65.30
2018-05-03T04:08:27.965Z,66.20
2018-05-03T04:10:54.556Z,66.00
2018-05-03T04:13:20.788Z,66.00
2018-05-03T04:15:47.002Z,66.20
2018-05-03T04:18:25.548Z,66.20
2018-05-03T04:21:13.451Z,65.50
2018-05-03T04:24:06.563Z,65.50
2018-05-03T04:26:33.148Z,65.20
2018-05-03T04:28:59.368Z,65.20
2018-05-03T04:31:25.617Z,64.70
2018-05-03T04:33:51.835Z,64.70
2018-05-03T04:36:18.069Z,63.90
2018-05-03T04:38:44.308Z,63.50
2018-05-03T04:41:10.517Z,63.90
2018-05-03T04:43:36.742Z,64.10
2018-05-03T04:46:03.029Z,65.10
2018-05-03T04:48:29.650Z,65.90
2018-05-03T04:50:55.913Z,66.00
2018-05-03T04:53:22.155Z,65.30
2018-05-03T04:55:48.429Z,65.40
2018-05-03T04:58:14.682Z,65.50
2018-05-03T05:00:41.263Z,65.60
2018-05-03T05:03:07.533Z,65.60
2018-05-03T05:05:34.543Z,66.00
2018-05-03T05:08:00.743Z,66.20
2018-05-03T05:10:27.979Z,65.40
2018-05-03T05:12:54.610Z,65.70
2018-05-03T05:15:21.206Z,65.10
2018-05-03T05:17:47.467Z,65.10
2018-05-03T05:20:13.659Z,65.60
2018-05-03T05:22:39.873Z,65.50
2018-05-03T05:25:06.118Z,65.00
2018-05-03T05:27:32.328Z,66.00
2018-05-03T05:29:58.587Z,64.80
2018-05-03T05:32:24.820Z,65.20
2018-05-03T05:34:51.056Z,65.20
2018-05-03T05:37:17.327Z,66.00
2018-05-03T05:39:43.575Z,64.80
2018-05-03T05:42:10.347Z,64.30
2018-05-03T05:44:36.620Z,63.20
2018-05-03T05:47:02.857Z,63.30
2018-05-03T05:49:29.102Z,62.50
2018-05-03T05:51:55.329Z,64.20
2018-05-03T05:54:21.537Z,63.40
2018-05-03T05:56:47.855Z,64.60
2018-05-03T05:59:14.067Z,64.40
2018-05-03T06:01:40.271Z,63.20
2018-05-03T06:04:06.531Z,63.40
2018-05-03T06:06:32.778Z,62.80
2018-05-03T06:08:59.364Z,64.40
2018-05-03T06:11:25.627Z,64.40
2018-05-03T06:13:52.216Z,62.70
2018-05-03T06:16:18.466Z,62.70
2018-05-03T06:18:44.708Z,63.80
2018-05-03T06:21:10.959Z,63.90
2018-05-03T06:23:37.569Z,64.00
2018-05-03T06:26:03.820Z,64.10
2018-05-03T06:28:30.394Z,64.60
2018-05-03T06:30:56.617Z,64.60
2018-05-03T06:33:22.813Z,64.40
2018-05-03T06:35:49.037Z,63.70
2018-05-03T06:38:15.267Z,63.60
2018-05-03T06:40:41.505Z,64.20
2018-05-03T06:43:07.730Z,63.60
2018-05-03T06:45:33.982Z,63.70
2018-05-03T06:48:00.206Z,63.90
2018-05-03T06:50:26.448Z,63.30
2018-05-03T06:52:52.700Z,63.00
2018-05-03T06:55:18.964Z,65.10
2018-05-03T06:57:45.550Z,64.20
2018-05-03T07:00:11.771Z,64.20
2018-05-03T07:02:37.998Z,64.50
2018-05-03T07:05:04.247Z,64.30
2018-05-03T07:07:30.473Z,63.10
2018-05-03T07:09:56.741Z,64.20
2018-05-03T07:12:22.955Z,63.90
2018-05-03T07:14:49.223Z,64.00
2018-05-03T07:17:15.442Z,61.50
2018-05-03T07:19:41.631Z,62.70
2018-05-03T07:22:07.890Z,62.90
2018-05-03T07:24:34.467Z,59.30
2018-05-03T07:27:00.671Z,59.30
2018-05-03T07:29:26.940Z,57.80
2018-05-03T07:31:53.138Z,58.80
2018-05-03T07:34:19.337Z,57.30
2018-05-03T07:36:45.600Z,55.50
2018-05-03T07:39:11.816Z,54.80
2018-05-03T07:41:38.019Z,54.90
2018-05-03T07:44:04.302Z,55.10
2018-05-03T07:46:30.495Z,53.90
2018-05-03T07:48:56.705Z,54.30
2018-05-03T07:51:22.938Z,55.50
2018-05-03T07:53:49.172Z,54.80
2018-05-03T07:56:15.403Z,56.00
2018-05-03T07:58:41.637Z,53.70
2018-05-03T08:01:07.927Z,56.80
2018-05-03T08:03:34.145Z,58.10
2018-05-03T08:06:00.385Z,56.90
2018-05-03T08:08:26.629Z,57.10
2018-05-03T08:10:53.863Z,54.80
2018-05-03T08:13:21.424Z,56.00
2018-05-03T08:15:51.613Z,57.90
2018-05-03T08:18:17.883Z,56.30
2018-05-03T08:20:44.931Z,54.50
2018-05-03T08:23:11.546Z,52.20
2018-05-03T08:25:37.815Z,52.20
2018-05-03T08:28:05.027Z,55.90
2018-05-03T08:30:31.257Z,55.90
2018-05-03T08:32:57.491Z,54.10
2018-05-03T08:35:23.718Z,55.10
2018-05-03T08:37:49.946Z,57.50
2018-05-03T08:40:16.180Z,56.20
2018-05-03T08:42:42.393Z,56.30
2018-05-03T08:45:08.615Z,55.50
2018-05-03T08:47:34.867Z,56.80
2018-05-03T08:50:01.106Z,53.50
2018-05-03T08:52:27.707Z,54.80
2018-05-03T08:54:53.913Z,54.80
2018-05-03T08:57:20.133Z,53.40
2018-05-03T08:59:46.367Z,52.90
2018-05-03T09:02:12.561Z,53.40
2018-05-03T09:04:38.796Z,52.70
2018-05-03T09:07:05.076Z,55.50
2018-05-03T09:09:31.349Z,54.60
2018-05-03T09:11:57.943Z,52.40
2018-05-03T09:14:24.172Z,52.40
2018-05-03T09:16:50.469Z,52.10
2018-05-03T09:19:16.701Z,51.30
2018-05-03T09:21:42.962Z,52.00
2018-05-03T09:24:09.192Z,53.30
2018-05-03T09:26:35.486Z,54.60
2018-05-03T09:29:01.684Z,55.80
2018-05-03T09:31:28.336Z,53.80
2018-05-03T09:33:54.544Z,53.80
2018-05-03T09:36:21.115Z,52.40
2018-05-03T09:38:47.395Z,52.40
2018-05-03T09:41:14.389Z,49.60
2018-05-03T09:43:40.605Z,52.80
2018-05-03T09:46:06.941Z,51.40
2018-05-03T09:48:33.171Z,51.90
2018-05-03T09:50:59.414Z,50.40
2018-05-03T09:53:25.651Z,49.40
2018-05-03T09:55:51.918Z,50.90
2018-05-03T09:58:18.540Z,49.30
2018-05-03T10:00:44.792Z,49.30
2018-05-03T10:03:11.389Z,50.50
2018-05-03T10:05:37.614Z,50.50
2018-05-03T10:08:03.862Z,48.50
2018-05-03T10:10:30.097Z,48.80
2018-05-03T10:12:56.352Z,48.50
2018-05-03T10:15:22.592Z,49.00
2018-05-03T10:17:48.846Z,49.00
2018-05-03T10:20:15.096Z,48.00
2018-05-03T10:22:41.471Z,48.60
2018-05-03T10:25:07.624Z,50.60
2018-05-03T10:27:33.881Z,51.00
2018-05-03T10:30:00.143Z,48.70
2018-05-03T10:32:26.385Z,48.30
2018-05-03T10:34:53.038Z,46.50
2018-05-03T10:37:19.279Z,46.40
2018-05-03T10:39:45.499Z,48.60
2018-05-03T10:42:11.757Z,49.50
2018-05-03T10:44:38.063Z,49.60
2018-05-03T10:47:04.358Z,49.00
2018-05-03T10:49:30.914Z,48.00
2018-05-03T10:51:57.150Z,48.00
2018-05-03T10:54:23.417Z,48.50
2018-05-03T10:56:49.625Z,48.40
2018-05-03T10:59:15.839Z,47.90
2018-05-03T11:01:42.088Z,48.80
2018-05-03T11:04:08.303Z,47.80
2018-05-03T11:06:35.247Z,48.20
2018-05-03T11:09:01.504Z,48.00
2018-05-03T11:11:27.713Z,47.70
2018-05-03T11:13:53.923Z,47.20
2018-05-03T11:16:20.164Z,50.50
2018-05-03T11:18:46.408Z,49.60
2018-05-03T11:21:12.633Z,49.20
2018-05-03T11:23:38.915Z,48.70
2018-05-03T11:26:05.170Z,49.00
2018-05-03T11:28:32.248Z,49.10
2018-05-03T11:30:58.486Z,48.70
2018-05-03T11:33:25.712Z,49.40
2018-05-03T11:35:51.919Z,51.10
2018-05-03T11:38:18.144Z,48.90
2018-05-03T11:40:44.377Z,49.90
2018-05-03T11:43:10.624Z,50.00
2018-05-03T11:45:36.884Z,48.10
2018-05-03T11:48:03.112Z,48.60
2018-05-03T11:50:29.310Z,49.00
2018-05-03T11:52:55.573Z,50.30
2018-05-03T11:55:22.335Z,46.90
2018-05-03T11:57:48.986Z,48.80
2018-05-03T12:00:15.203Z,48.80
2018-05-03T12:02:41.403Z,48.00
2018-05-03T12:05:07.954Z,49.20
2018-05-03T12:07:34.558Z,48.80
2018-05-03T12:10:00.815Z,48.70
2018-05-03T12:12:27.437Z,49.40
2018-05-03T12:14:53.651Z,49.40
2018-05-03T12:17:19.900Z,50.30
2018-05-03T12:19:46.143Z,48.40
2018-05-03T12:22:13.322Z,47.50
2018-05-03T12:24:40.532Z,47.50
2018-05-03T12:27:06.771Z,50.50
2018-05-03T12:29:33.033Z,49.10
2018-05-03T12:31:59.266Z,50.20
2018-05-03T12:34:25.574Z,49.80
2018-05-03T12:36:51.814Z,47.00
2018-05-03T12:39:18.049Z,47.80
2018-05-03T12:41:44.251Z,50.30
2018-05-03T12:44:10.541Z,50.80
2018-05-03T12:46:36.810Z,49.80
2018-05-03T12:49:03.141Z,51.00
2018-05-03T12:51:29.715Z,49.70
2018-05-03T12:53:55.957Z,49.70
2018-05-03T12:56:22.229Z,50.20
2018-05-03T12:58:48.800Z,50.40
2018-05-03T13:01:15.039Z,50.30
2018-05-03T13:03:41.276Z,50.90
2018-05-03T13:06:07.498Z,50.30
2018-05-03T13:08:33.743Z,50.60
2018-05-03T13:10:59.976Z,50.00
2018-05-03T13:13:26.184Z,49.30
2018-05-03T13:15:52.433Z,48.90
2018-05-03T13:18:18.669Z,50.40
2018-05-03T13:20:44.926Z,47.90
2018-05-03T13:23:11.177Z,49.30
2018-05-03T13:25:37.440Z,48.80
2018-05-03T13:28:03.762Z,49.10
2018-05-03T13:30:29.979Z,49.30
2018-05-03T13:32:56.201Z,51.20
2018-05-03T13:35:22.428Z,49.80
2018-05-03T13:37:48.692Z,47.70
2018-05-03T13:40:14.919Z,46.80
2018-05-03T13:42:41.129Z,47.70
2018-05-03T13:45:07.420Z,48.40
2018-05-03T13:47:33.672Z,48.80
2018-05-03T13:49:59.886Z,48.90
2018-05-03T13:52:26.125Z,49.90
2018-05-03T13:54:52.382Z,50.60
2018-05-03T13:57:18.632Z,48.80
2018-05-03T13:59:44.875Z,50.00
2018-05-03T14:02:11.078Z,50.20
2018-05-03T14:04:37.657Z,49.40
2018-05-03T14:07:03.959Z,51.30
2018-05-03T14:09:30.175Z,52.30
2018-05-03T14:11:56.415Z,51.30
2018-05-03T14:14:23.224Z,50.30
2018-05-03T14:16:49.423Z,48.80
2018-05-03T14:19:15.739Z,50.20
2018-05-03T14:21:41.968Z,51.60
2018-05-03T14:24:10.059Z,50.90
2018-05-03T14:26:36.312Z,51.40
2018-05-03T14:29:02.562Z,48.10
2018-05-03T14:31:28.805Z,50.00
2018-05-03T14:33:55.423Z,50.90
2018-05-03T14:36:21.706Z,50.90
2018-05-03T14:38:47.926Z,50.60
2018-05-03T14:41:14.208Z,51.20
2018-05-03T14:43:40.424Z,50.30
2018-05-03T14:46:06.680Z,51.50
2018-05-03T14:48:32.960Z,50.90
2018-05-03T14:51:00.066Z,51.10
2018-05-03T14:53:26.652Z,50.70
2018-05-03T14:55:52.942Z,50.70
2018-05-03T14:58:19.158Z,51.40
2018-05-03T15:00:45.730Z,50.20
2018-05-03T15:03:11.986Z,50.20
2018-05-03T15:05:38.846Z,51.70
2018-05-03T15:08:05.203Z,51.70
2018-05-03T15:10:31.517Z,51.30
2018-05-03T15:12:57.696Z,50.20
2018-05-03T15:15:23.924Z,50.80
2018-05-03T15:17:50.427Z,51.30
2018-05-03T15:20:17.168Z,50.60
2018-05-03T15:22:43.385Z,50.60
2018-05-03T15:25:09.667Z,50.90
2018-05-03T15:27:35.928Z,51.20
2018-05-03T15:30:02.614Z,51.40
2018-05-03T15:32:28.918Z,51.40
2018-05-03T15:34:55.751Z,52.00
2018-05-03T15:37:22.012Z,51.90
2018-05-03T15:39:49.128Z,51.20
2018-05-03T15:42:15.739Z,51.50
2018-05-03T15:44:42.061Z,51.60
2018-05-03T15:47:08.184Z,52.90
2018-05-03T15:49:34.431Z,53.20
2018-05-03T15:52:00.645Z,52.10
2018-05-03T15:54:26.893Z,52.60
2018-05-03T15:56:53.174Z,53.90
2018-05-03T15:59:19.387Z,53.80
2018-05-03T16:01:45.603Z,51.80
2018-05-03T16:04:11.883Z,52.30
2018-05-03T16:06:38.185Z,52.50
2018-05-03T16:09:05.228Z,52.70
2018-05-03T16:11:31.470Z,52.30
2018-05-03T16:13:57.697Z,51.00
2018-05-03T16:16:23.971Z,53.80
2018-05-03T16:18:50.258Z,52.90
2018-05-03T16:21:16.639Z,53.40
2018-05-03T16:23:43.205Z,54.30
2018-05-03T16:26:09.473Z,54.30
2018-05-03T16:28:35.752Z,53.50
2018-05-03T16:31:02.013Z,53.50
2018-05-03T16:33:28.288Z,54.70
2018-05-03T16:35:54.593Z,53.60
2018-05-03T16:38:20.805Z,54.10
2018-05-03T16:40:47.102Z,54.80
2018-05-03T16:43:13.700Z,54.60
2018-05-03T16:45:39.917Z,54.60
2018-05-03T16:48:06.191Z,55.00
2018-05-03T16:50:32.436Z,55.10
2018-05-03T16:52:58.673Z,54.80
2018-05-03T16:55:25.652Z,55.80
2018-05-03T16:57:51.939Z,54.80
2018-05-03T17:00:18.183Z,56.70
2018-05-03T17:02:44.447Z,56.60
2018-05-03T17:05:10.806Z,56.10
2018-05-03T17:07:37.064Z,55.70
2018-05-03T17:10:04.654Z,56.10
2018-05-03T17:12:30.954Z,55.70
2018-05-03T17:14:57.247Z,56.20
2018-05-03T17:17:23.901Z,57.50
2018-05-03T17:19:50.129Z,57.50
2018-05-03T17:22:16.368Z,57.00
2018-05-03T17:24:42.597Z,56.70
2018-05-03T17:27:08.823Z,56.60
2018-05-03T17:29:35.062Z,56.60
2018-05-03T17:32:01.318Z,56.20
2018-05-03T17:34:27.583Z,56.30
2018-05-03T17:36:53.812Z,56.60
2018-05-03T17:39:20.872Z,56.80
2018-05-03T17:41:47.165Z,55.50
2018-05-03T17:44:13.403Z,56.60
2018-05-03T17:46:40.057Z,56.10
2018-05-03T17:49:06.684Z,56.50
2018-05-03T17:51:33.830Z,56.50
2018-05-03T17:54:00.098Z,57.20
2018-05-03T17:56:26.389Z,57.70
2018-05-03T17:58:52.629Z,56.40
2018-05-03T18:01:20.138Z,57.40
2018-05-03T18:03:46.387Z,57.40
2018-05-03T18:06:12.634Z,56.80
2018-05-03T18:08:38.930Z,56.90
2018-05-03T18:11:05.218Z,57.50
2018-05-03T18:13:31.509Z,57.40
2018-05-03T18:18:48.270Z,57.50
2018-05-03T18:21:15.251Z,57.00
2018-05-03T18:23:41.529Z,57.20
2018-05-03T18:26:08.219Z,58.00
2018-05-03T18:28:34.531Z,58.00
2018-05-03T18:31:00.852Z,58.30
2018-05-03T18:33:27.098Z,58.30
2018-05-03T18:35:53.367Z,58.40
2018-05-03T18:38:19.763Z,57.50
2018-05-03T18:40:46.010Z,58.50
2018-05-03T18:43:12.291Z,58.50
2018-05-03T18:45:38.582Z,59.00
2018-05-03T18:48:04.843Z,58.80
2018-05-03T18:50:31.137Z,58.40
2018-05-03T18:52:57.389Z,58.30
2018-05-03T18:55:23.616Z,58.10
2018-05-03T18:57:49.918Z,58.60
2018-05-03T19:00:16.180Z,58.60
2018-05-03T19:02:42.873Z,59.50
2018-05-03T19:05:09.106Z,59.50
2018-05-03T19:07:35.403Z,59.50
2018-05-03T19:10:01.679Z,59.40
2018-05-03T19:12:27.937Z,60.00
2018-05-03T19:14:54.580Z,60.20
2018-05-03T19:17:20.854Z,60.10
2018-05-03T19:19:47.205Z,60.50
2018-05-03T19:22:13.461Z,60.60
2018-05-03T19:24:40.133Z,60.40
2018-05-03T19:27:06.368Z,60.40
2018-05-03T19:29:32.644Z,60.00
2018-05-03T19:31:58.975Z,60.30
2018-05-03T19:34:25.210Z,61.00
2018-05-03T19:36:51.460Z,61.50
2018-05-03T19:39:17.726Z,60.90
2018-05-03T19:41:44.001Z,61.20
2018-05-03T19:44:10.640Z,61.50
2018-05-03T19:46:36.936Z,61.50
2018-05-03T19:49:03.239Z,61.10
2018-05-03T19:51:29.477Z,60.90
2018-05-03T19:53:55.805Z,61.30
2018-05-03T19:56:22.047Z,60.60
2018-05-03T19:58:48.289Z,60.90
2018-05-03T20:01:14.582Z,61.30
2018-05-03T20:03:40.850Z,61.00
2018-05-03T20:06:07.078Z,61.00
2018-05-03T20:08:34.349Z,60.60
2018-05-03T20:11:00.586Z,61.40
2018-05-03T20:13:29.852Z,61.00
2018-05-03T20:15:56.175Z,60.70
2018-05-03T20:18:22.514Z,61.30
2018-05-03T20:20:48.751Z,61.20
2018-05-03T20:23:15.050Z,61.30
2018-05-03T20:25:41.307Z,61.00
2018-05-03T20:28:07.555Z,60.80
2018-05-03T20:30:34.186Z,61.10
2018-05-03T20:33:00.816Z,60.80
2018-05-03T20:35:27.050Z,60.90
2018-05-03T20:37:53.647Z,61.10
2018-05-03T20:40:19.923Z,61.10
2018-05-03T20:42:46.600Z,61.00
2018-05-03T20:45:12.890Z,61.00
2018-05-03T20:47:39.177Z,61.30
2018-05-03T20:50:05.444Z,61.60
2018-05-03T20:52:32.025Z,61.50
2018-05-03T20:54:58.260Z,61.40
2018-05-03T20:57:24.516Z,61.40
2018-05-03T20:59:50.756Z,61.50
2018-05-03T21:02:16.976Z,62.00
2018-05-03T21:04:43.217Z,62.00
2018-05-03T21:07:09.949Z,61.90
2018-05-03T21:09:36.138Z,61.90
2018-05-03T21:12:02.434Z,62.30
2018-05-03T21:14:28.677Z,62.30
2018-05-03T21:16:54.980Z,62.10
2018-05-03T21:19:21.729Z,62.40
2018-05-03T21:21:48.925Z,63.10
2018-05-03T21:24:15.136Z,63.30
2018-05-03T21:26:41.361Z,63.10
2018-05-03T21:29:07.616Z,63.60
2018-05-03T21:31:33.851Z,63.40
2018-05-03T21:34:00.049Z,63.60
2018-05-03T21:36:26.353Z,63.50
2018-05-03T21:38:52.572Z,62.70
2018-05-03T21:41:19.211Z,63.60
2018-05-03T21:43:45.475Z,63.70
2018-05-03T21:46:11.744Z,63.50
2018-05-03T21:48:38.001Z,63.90
2018-05-03T21:51:04.612Z,64.20
2018-05-03T21:53:30.841Z,64.20
2018-05-03T21:55:57.819Z,64.80
2018-05-03T21:58:24.064Z,63.90
2018-05-03T22:00:50.883Z,63.50
2018-05-03T22:03:17.203Z,63.60
2018-05-03T22:05:43.406Z,63.30
2018-05-03T22:08:10.535Z,63.30
2018-05-03T22:10:36.796Z,63.20
2018-05-03T22:13:03.012Z,63.30
2018-05-03T22:15:29.264Z,62.90
2018-05-03T22:17:55.539Z,63.00
2018-05-03T22:20:21.787Z,62.60
2018-05-03T22:22:48.024Z,62.20
2018-05-03T22:25:14.275Z,62.30
2018-05-03T22:27:40.884Z,62.60
2018-05-03T22:30:07.154Z,62.60
2018-05-03T22:32:33.784Z,62.80
2018-05-03T22:35:00.395Z,62.70
2018-05-03T22:37:26.654Z,62.70
2018-05-03T22:39:53.248Z,63.10
2018-05-03T22:42:19.488Z,63.10
2018-05-03T22:44:45.711Z,63.00
2018-05-03T22:47:11.957Z,62.80
2018-05-03T22:49:38.222Z,63.70
2018-05-03T22:52:04.491Z,64.00
2018-05-03T22:54:30.687Z,63.80
2018-05-03T22:56:56.915Z,64.00
2018-05-03T22:59:23.145Z,64.30
2018-05-03T23:01:49.413Z,63.90
2018-05-03T23:04:15.618Z,64.20
2018-05-03T23:06:41.832Z,64.00
2018-05-03T23:09:08.063Z,64.50
2018-05-03T23:11:34.319Z,64.70
2018-05-03T23:14:00.572Z,65.20
2018-05-03T23:16:27.171Z,65.30
2018-05-03T23:18:54.251Z,65.30
2018-05-03T23:21:20.496Z,65.80
2018-05-03T23:23:46.729Z,66.10
2018-05-03T23:26:12.975Z,66.10
2018-05-03T23:28:39.176Z,66.10
2018-05-03T23:31:05.413Z,66.20
2018-05-03T23:33:31.669Z,66.40
2018-05-03T23:35:57.898Z,66.00
2018-05-03T23:38:24.168Z,66.00
2018-05-03T23:40:50.397Z,65.20
2018-05-03T23:43:16.620Z,64.80
2018-05-03T23:45:42.888Z,64.70
2018-05-03T23:48:09.104Z,64.90
2018-05-03T23:50:35.747Z,64.50
2018-05-03T23:53:02.009Z,64.50
2018-05-03T23:55:28.248Z,64.50
2018-05-03T23:57:54.460Z,64.90
